Time;durP1;ratioP1;P1;durP2;ratioP2;P2;SDS_P1;SDS_P2;PMS_P1;PMS_P2;Temp;Humidity;BMP_temperature;BMP_pressure;BME280_temperature;BME280_humidity;BME280_pressure;Samples;Min_cycle;Max_cycle;Signal;HPM_P1;HPM_P2
2021/03/07 00:01:50;;;;;;;13.98;7.70;;;1.50;59.90;;;;;;5103705;28;27655;-68
2021/03/07 00:04:37;;;;;;;16.58;7.50;;;1.50;59.90;;;;;;5104412;28;27494;-68
2021/03/07 00:07:22;;;;;;;12.15;7.68;;;1.40;60.20;;;;;;5089106;28;27323;-68
2021/03/07 00:10:12;;;;;;;11.70;6.55;;;1.40;60.20;;;;;;5104082;28;27450;-63
2021/03/07 00:12:57;;;;;;;11.88;7.20;;;1.40;60.20;;;;;;5074954;28;27967;-68
2021/03/07 00:15:41;;;;;;;12.70;7.38;;;1.40;60.30;;;;;;5100955;28;27584;-62
2021/03/07 00:18:26;;;;;;;11.60;6.65;;;1.40;60.30;;;;;;5104285;27;27387;-67
2021/03/07 00:21:10;;;;;;;10.70;7.20;;;1.30;60.30;;;;;;5107521;28;27333;-67
2021/03/07 00:23:54;;;;;;;10.85;7.32;;;1.30;60.40;;;;;;5107723;28;27336;-67
2021/03/07 00:26:39;;;;;;;11.43;6.65;;;1.20;60.30;;;;;;5107476;28;27387;-63
2021/03/07 00:29:23;;;;;;;14.77;7.80;;;1.20;60.30;;;;;;5104100;28;27337;-66
2021/03/07 00:32:08;;;;;;;12.18;7.70;;;1.20;60.50;;;;;;5107603;28;27315;-67
2021/03/07 00:34:52;;;;;;;14.18;6.53;;;1.20;60.50;;;;;;5107213;28;27402;-67
2021/03/07 00:37:37;;;;;;;11.18;7.03;;;1.10;60.60;;;;;;5107119;28;27357;-64
2021/03/07 00:40:22;;;;;;;11.25;6.25;;;1.10;60.60;;;;;;5107071;28;27433;-67
2021/03/07 00:43:06;;;;;;;9.55;6.45;;;1.10;60.70;;;;;;5107071;28;27490;-67
2021/03/07 00:45:51;;;;;;;11.55;7.13;;;1.10;60.70;;;;;;5107254;28;27469;-67
2021/03/07 00:48:36;;;;;;;12.13;6.72;;;1.00;60.80;;;;;;5091888;28;27474;-67
2021/03/07 00:51:20;;;;;;;11.60;6.43;;;1.00;60.70;;;;;;5107126;28;27454;-67
2021/03/07 00:54:04;;;;;;;10.68;6.97;;;1.00;60.80;;;;;;5107028;28;27470;-67
2021/03/07 00:56:49;;;;;;;10.27;6.78;;;1.00;60.90;;;;;;5106520;28;27569;-67
2021/03/07 00:59:33;;;;;;;13.00;7.05;;;1.00;60.90;;;;;;5106853;28;27519;-67
2021/03/07 01:02:18;;;;;;;9.20;6.00;;;1.00;61.00;;;;;;5106942;28;27565;-66
2021/03/07 01:05:03;;;;;;;10.80;6.00;;;0.90;61.00;;;;;;5106818;28;26873;-66
2021/03/07 01:07:48;;;;;;;10.18;5.43;;;0.90;61.00;;;;;;5106502;28;27989;-67
2021/03/07 01:10:37;;;;;;;10.68;6.07;;;0.90;61.10;;;;;;5106717;28;27483;-67
2021/03/07 01:13:21;;;;;;;9.48;6.18;;;0.90;61.20;;;;;;5107056;28;27439;-67
2021/03/07 01:16:06;;;;;;;11.35;5.70;;;0.80;61.10;;;;;;5106924;28;27462;-67
2021/03/07 01:18:50;;;;;;;14.40;6.78;;;0.90;61.20;;;;;;5106930;28;27452;-67
2021/03/07 01:21:35;;;;;;;11.10;6.50;;;0.80;61.10;;;;;;5106554;28;27469;-67
2021/03/07 01:24:19;;;;;;;9.82;6.20;;;0.80;61.10;;;;;;5091342;28;27417;-67
2021/03/07 01:27:04;;;;;;;9.57;6.00;;;0.70;61.10;;;;;;5106763;28;27407;-67
2021/03/07 01:29:49;;;;;;;8.07;5.43;;;0.80;61.20;;;;;;5106552;28;27454;-66
2021/03/07 01:32:35;;;;;;;11.30;5.82;;;0.70;61.20;;;;;;5088325;28;27490;-67
2021/03/07 01:35:19;;;;;;;9.20;5.68;;;0.70;61.20;;;;;;5106479;28;27410;-67
2021/03/07 01:38:04;;;;;;;10.15;6.50;;;0.70;61.20;;;;;;5091013;28;27424;-67
2021/03/07 01:40:50;;;;;;;12.60;7.00;;;0.70;61.40;;;;;;5106233;28;27923;-67
2021/03/07 01:43:34;;;;;;;8.82;5.63;;;0.60;61.40;;;;;;5106216;28;27470;-67
2021/03/07 01:46:19;;;;;;;9.20;6.13;;;0.60;61.40;;;;;;5106648;28;27462;-67
2021/03/07 01:49:04;;;;;;;11.23;6.35;;;0.60;61.40;;;;;;5105490;28;27472;-68
2021/03/07 01:51:48;;;;;;;11.05;6.20;;;0.60;61.50;;;;;;5091214;28;27403;-67
2021/03/07 01:54:33;;;;;;;10.73;6.95;;;0.60;61.60;;;;;;5087523;28;27523;-67
2021/03/07 01:57:19;;;;;;;9.50;6.32;;;0.60;61.60;;;;;;5090910;28;27451;-67
2021/03/07 02:00:08;;;;;;;12.23;6.32;;;0.50;61.60;;;;;;5073519;28;27431;-67
2021/03/07 02:02:56;;;;;;;14.13;6.35;;;0.50;61.60;;;;;;5105903;28;27377;-67
2021/03/07 02:05:41;;;;;;;11.18;5.97;;;0.50;61.60;;;;;;5090811;28;27539;-67
2021/03/07 02:08:26;;;;;;;12.68;6.50;;;0.50;61.70;;;;;;5090731;28;27361;-67
2021/03/07 02:11:11;;;;;;;10.98;6.40;;;0.50;61.70;;;;;;5106116;28;27376;-66
2021/03/07 02:13:55;;;;;;;11.15;6.20;;;0.40;61.70;;;;;;5102658;28;27367;-67
2021/03/07 02:16:40;;;;;;;10.50;6.28;;;0.40;61.60;;;;;;5062251;28;27378;-68
2021/03/07 02:19:39;;;;;;;14.07;5.85;;;0.40;61.70;;;;;;5105551;28;27399;-67
2021/03/07 02:22:52;;;;;;;9.30;6.07;;;0.40;61.80;;;;;;5105942;28;27470;-67
2021/03/07 02:25:37;;;;;;;12.43;5.68;;;0.40;61.90;;;;;;5102598;28;27447;-67
2021/03/07 02:28:23;;;;;;;7.40;5.15;;;0.40;61.90;;;;;;5075887;28;27403;-68
2021/03/07 02:31:08;;;;;;;10.77;5.35;;;0.30;61.90;;;;;;5105559;28;27474;-67
2021/03/07 02:34:16;;;;;;;9.27;5.22;;;0.30;61.90;;;;;;5105791;28;27428;-66
2021/03/07 02:37:02;;;;;;;11.20;5.80;;;0.30;61.90;;;;;;5105625;28;27456;-67
2021/03/07 02:39:47;;;;;;;8.80;5.85;;;0.30;62.00;;;;;;5104501;28;27431;-67
2021/03/07 02:42:32;;;;;;;7.90;5.25;;;0.30;61.90;;;;;;5061137;28;27421;-62
2021/03/07 02:45:21;;;;;;;9.52;5.63;;;0.30;62.90;;;;;;5089860;28;27455;-66
2021/03/07 02:48:06;;;;;;;7.95;5.10;;;0.20;62.10;;;;;;5104987;28;27857;-66
2021/03/07 02:50:51;;;;;;;9.40;5.40;;;0.20;62.10;;;;;;5105192;28;27364;-67
2021/03/07 02:53:35;;;;;;;10.40;5.78;;;0.20;62.20;;;;;;5090160;28;27341;-67
2021/03/07 02:56:21;;;;;;;7.25;4.55;;;0.20;62.20;;;;;;5090017;28;27460;-67
2021/03/07 02:59:11;;;;;;;11.18;5.55;;;0.20;62.20;;;;;;5105019;28;27343;-67
2021/03/07 03:01:57;;;;;;;10.13;5.32;;;0.20;62.20;;;;;;5105235;28;27471;-67
2021/03/07 03:04:41;;;;;;;8.98;5.45;;;0.10;62.30;;;;;;5105063;28;27467;-67
2021/03/07 03:07:27;;;;;;;8.23;4.82;;;0.10;62.30;;;;;;5086723;28;27469;-67
2021/03/07 03:10:12;;;;;;;8.75;5.30;;;0.10;62.30;;;;;;5089968;28;27845;-67
2021/03/07 03:12:56;;;;;;;6.75;4.70;;;0.10;62.30;;;;;;5089047;28;27656;-67
2021/03/07 03:15:41;;;;;;;6.53;4.65;;;0.10;62.40;;;;;;5075650;28;27399;-67
2021/03/07 03:18:29;;;;;;;8.55;5.40;;;0.10;62.50;;;;;;5089832;28;27480;-67
2021/03/07 03:21:14;;;;;;;8.60;4.90;;;0.10;62.50;;;;;;5089940;28;27336;-66
2021/03/07 03:23:59;;;;;;;11.88;5.80;;;0.10;62.50;;;;;;5104726;28;27401;-67
2021/03/07 03:26:44;;;;;;;7.85;4.95;;;0.00;62.50;;;;;;5104963;28;27367;-66
2021/03/07 03:29:29;;;;;;;7.78;5.20;;;0.00;62.60;;;;;;5104893;28;27312;-66
2021/03/07 03:32:13;;;;;;;10.43;6.00;;;0.10;62.70;;;;;;5104548;28;27386;-66
2021/03/07 03:34:58;;;;;;;9.27;5.80;;;0.00;62.80;;;;;;5104519;28;27414;-67
2021/03/07 03:37:43;;;;;;;9.25;5.47;;;0.00;62.70;;;;;;5074951;28;27351;-62
2021/03/07 03:40:28;;;;;;;9.15;5.40;;;0.00;62.70;;;;;;5104234;28;27345;-67
2021/03/07 03:43:13;;;;;;;9.65;5.57;;;0.00;62.80;;;;;;5104464;28;28054;-62
2021/03/07 03:46:00;;;;;;;10.95;5.55;;;0.00;62.90;;;;;;5104746;28;27430;-67
2021/03/07 03:48:47;;;;;;;9.20;5.60;;;-0.10;62.90;;;;;;5089421;28;27342;-67
2021/03/07 03:51:34;;;;;;;8.13;5.13;;;-0.10;62.90;;;;;;5104414;28;27386;-67
2021/03/07 03:54:18;;;;;;;9.80;5.82;;;-0.10;62.90;;;;;;5106671;28;28047;-67
2021/03/07 03:57:03;;;;;;;9.80;5.53;;;-0.10;63.00;;;;;;5093036;28;27388;-66
2021/03/07 03:59:48;;;;;;;9.63;5.40;;;-0.10;63.00;;;;;;5107968;28;27471;-67
2021/03/07 04:02:33;;;;;;;9.73;5.68;;;-0.10;63.10;;;;;;5078669;28;27442;-67
2021/03/07 04:05:18;;;;;;;10.35;5.68;;;-0.10;63.20;;;;;;5108036;28;27469;-67
2021/03/07 04:08:04;;;;;;;11.27;5.85;;;-0.10;63.20;;;;;;5092248;28;27606;-67
2021/03/07 04:10:50;;;;;;;11.63;6.30;;;-0.10;63.20;;;;;;5092978;28;27452;-67
2021/03/07 04:13:35;;;;;;;8.88;5.63;;;0.00;63.30;;;;;;5107947;28;27391;-67
2021/03/07 04:16:19;;;;;;;10.43;5.95;;;0.00;63.30;;;;;;5060749;28;27409;-66
2021/03/07 04:19:04;;;;;;;12.18;6.32;;;0.00;63.30;;;;;;5092687;28;27460;-67
2021/03/07 04:21:48;;;;;;;8.80;5.68;;;0.00;63.40;;;;;;5092410;28;27463;-67
2021/03/07 04:24:33;;;;;;;11.43;6.18;;;0.00;63.50;;;;;;5078078;28;27467;-67
2021/03/07 04:27:18;;;;;;;8.88;5.38;;;0.10;63.70;;;;;;5107672;28;27441;-66
2021/03/07 04:30:07;;;;;;;10.35;6.32;;;0.10;63.70;;;;;;5078638;28;27486;-62
2021/03/07 04:32:51;;;;;;;9.30;5.97;;;0.10;63.70;;;;;;5107718;28;27423;-67
2021/03/07 04:35:36;;;;;;;8.10;5.50;;;0.10;63.80;;;;;;5091706;28;27479;-67
2021/03/07 04:38:20;;;;;;;8.85;6.18;;;0.20;63.90;;;;;;5077692;28;27516;-66
2021/03/07 04:41:05;;;;;;;10.90;6.15;;;0.20;63.90;;;;;;5107231;28;27459;-62
2021/03/07 04:43:51;;;;;;;12.23;6.03;;;0.20;63.90;;;;;;5077803;28;27499;-67
2021/03/07 04:46:35;;;;;;;10.15;5.80;;;0.20;63.90;;;;;;5107440;28;27452;-67
2021/03/07 04:49:20;;;;;;;8.60;6.15;;;0.30;64.00;;;;;;5107032;28;27946;-67
2021/03/07 04:52:04;;;;;;;10.23;6.47;;;0.30;64.00;;;;;;5107041;28;27536;-67
2021/03/07 04:54:49;;;;;;;9.05;5.97;;;0.30;63.90;;;;;;5107362;28;27407;-67
2021/03/07 04:57:34;;;;;;;10.52;6.80;;;0.40;63.90;;;;;;5107338;28;27411;-67
2021/03/07 05:00:19;;;;;;;11.00;6.15;;;0.40;63.90;;;;;;5106972;28;27481;-67
2021/03/07 05:03:03;;;;;;;11.27;7.03;;;0.50;64.00;;;;;;5106728;28;27431;-67
2021/03/07 05:05:48;;;;;;;9.55;5.78;;;0.40;63.90;;;;;;5106209;27;27418;-66
2021/03/07 05:08:33;;;;;;;9.52;5.97;;;0.50;64.00;;;;;;5106888;28;27408;-67
2021/03/07 05:11:17;;;;;;;9.70;6.15;;;0.50;64.00;;;;;;5107004;28;27499;-67
2021/03/07 05:14:02;;;;;;;8.88;5.95;;;0.60;63.90;;;;;;5107002;28;27378;-67
2021/03/07 05:16:47;;;;;;;10.93;6.30;;;0.60;63.80;;;;;;5106790;28;27410;-67
2021/03/07 05:19:31;;;;;;;8.73;5.93;;;0.60;63.90;;;;;;5106710;28;27362;-67
2021/03/07 05:22:16;;;;;;;10.32;6.95;;;0.60;63.90;;;;;;5106858;28;27360;-67
2021/03/07 05:25:00;;;;;;;11.85;6.18;;;0.70;64.00;;;;;;5106608;28;27356;-67
2021/03/07 05:27:45;;;;;;;10.77;6.63;;;0.70;64.00;;;;;;5091610;28;27367;-67
2021/03/07 05:30:29;;;;;;;10.45;6.93;;;0.70;63.90;;;;;;5106228;28;27390;-67
2021/03/07 05:33:16;;;;;;;8.75;5.65;;;0.70;63.90;;;;;;5106752;28;27376;-67
2021/03/07 05:36:00;;;;;;;11.23;6.60;;;0.70;63.80;;;;;;5106371;28;27540;-67
2021/03/07 05:38:45;;;;;;;9.23;6.07;;;0.70;63.80;;;;;;5089706;28;27702;-67
2021/03/07 05:41:30;;;;;;;10.57;6.85;;;0.80;64.60;;;;;;5106371;28;27383;-63
2021/03/07 05:44:15;;;;;;;10.15;6.57;;;0.80;63.80;;;;;;5091298;28;27417;-62
2021/03/07 05:46:59;;;;;;;18.15;7.00;;;0.80;63.80;;;;;;5106529;28;27354;-62
2021/03/07 05:49:43;;;;;;;12.43;6.57;;;0.80;63.90;;;;;;5106549;28;27332;-63
2021/03/07 05:52:28;;;;;;;11.68;7.47;;;0.80;63.80;;;;;;5106460;28;27380;-62
2021/03/07 05:55:13;;;;;;;12.20;7.10;;;0.80;63.80;;;;;;5091027;28;27400;-62
2021/03/07 05:58:03;;;;;;;10.70;7.25;;;0.80;63.80;;;;;;5105889;28;27517;-66
2021/03/07 06:00:47;;;;;;;12.85;7.30;;;0.90;63.90;;;;;;5091603;28;27535;-62
2021/03/07 06:03:35;;;;;;;15.65;7.53;;;0.90;63.70;;;;;;5091171;28;27408;-62
2021/03/07 06:06:19;;;;;;;11.73;7.13;;;0.80;63.70;;;;;;5105924;28;27939;-62
2021/03/07 06:09:24;;;;;;;15.52;7.68;;;0.90;63.80;;;;;;5105546;28;27466;-62
2021/03/07 06:12:20;;;;;;;14.05;7.93;;;0.90;63.80;;;;;;5105864;28;27512;-62
2021/03/07 06:15:05;;;;;;;10.45;7.18;;;0.90;63.80;;;;;;5105797;28;27432;-62
2021/03/07 06:17:50;;;;;;;13.85;7.80;;;0.90;63.60;;;;;;5104737;28;27436;-63
2021/03/07 06:20:36;;;;;;;12.10;7.63;;;0.90;63.60;;;;;;5105720;28;27432;-62
2021/03/07 06:23:36;;;;;;;11.95;7.20;;;0.90;63.50;;;;;;5105666;28;27470;-62
2021/03/07 06:26:23;;;;;;;11.98;7.40;;;0.90;63.40;;;;;;5103820;28;27338;-62
2021/03/07 06:29:14;;;;;;;13.27;7.55;;;1.00;63.40;;;;;;5105482;28;27935;-63
2021/03/07 06:31:59;;;;;;;10.40;6.95;;;1.00;63.30;;;;;;5105480;28;27464;-62
2021/03/07 06:34:45;;;;;;;11.55;7.45;;;1.00;63.20;;;;;;5105525;28;27316;-62
2021/03/07 06:37:32;;;;;;;15.18;7.93;;;1.00;63.10;;;;;;5105463;28;27387;-63
2021/03/07 06:40:43;;;;;;;11.10;6.88;;;1.10;63.10;;;;;;5104642;28;27972;-62
2021/03/07 06:43:30;;;;;;;12.75;7.72;;;1.10;62.90;;;;;;5102054;28;27357;-62
2021/03/07 06:46:46;;;;;;;8.98;6.68;;;1.10;62.90;;;;;;5105618;28;27475;-62
2021/03/07 06:49:30;;;;;;;10.85;6.85;;;1.20;62.80;;;;;;5105301;28;27327;-63
2021/03/07 06:52:24;;;;;;;9.98;6.85;;;1.20;62.70;;;;;;5105169;28;27950;-62
2021/03/07 06:55:14;;;;;;;12.18;6.70;;;1.20;62.60;;;;;;5089548;28;27399;-63
2021/03/07 06:58:02;;;;;;;12.82;7.50;;;1.30;62.60;;;;;;5105446;28;27447;-63
2021/03/07 07:00:46;;;;;;;11.77;7.47;;;1.30;62.30;;;;;;5075898;28;27461;-62
2021/03/07 07:03:34;;;;;;;8.23;6.00;;;1.40;62.30;;;;;;5101737;28;27507;-63
2021/03/07 07:06:18;;;;;;;11.52;6.95;;;1.40;62.10;;;;;;5101583;28;27533;-63
2021/03/07 07:09:04;;;;;;;13.75;8.10;;;1.40;62.10;;;;;;5104961;28;27384;-67
2021/03/07 07:11:48;;;;;;;13.70;8.10;;;1.50;62.10;;;;;;5105177;28;27378;-67
2021/03/07 07:14:42;;;;;;;15.35;8.05;;;1.60;61.90;;;;;;5104884;28;27343;-67
2021/03/07 07:17:26;;;;;;;12.80;7.95;;;1.70;61.80;;;;;;5104974;28;27451;-67
2021/03/07 07:20:11;;;;;;;13.55;8.30;;;1.70;61.60;;;;;;5089052;28;27482;-67
2021/03/07 07:22:56;;;;;;;16.30;8.82;;;1.80;61.50;;;;;;5089879;28;27482;-67
2021/03/07 07:25:40;;;;;;;13.82;9.00;;;2.00;61.10;;;;;;5104684;28;27458;-67
2021/03/07 07:28:38;;;;;;;13.98;9.32;;;2.50;59.90;;;;;;5089107;28;27471;-63
2021/03/07 07:31:22;;;;;;;13.63;8.82;;;3.00;58.50;;;;;;5061837;28;27420;-66
2021/03/07 07:34:19;;;;;;;16.83;10.13;;;3.60;57.00;;;;;;5062100;28;27506;-67
2021/03/07 07:37:18;;;;;;;17.60;9.77;;;4.20;55.70;;;;;;5045073;28;27391;-67
2021/03/07 07:40:02;;;;;;;15.20;10.18;;;4.70;54.30;;;;;;5048698;28;27424;-67
2021/03/07 07:42:59;;;;;;;15.60;10.43;;;5.30;52.80;;;;;;5061731;28;27452;-67
2021/03/07 07:45:44;;;;;;;17.10;9.77;;;5.90;51.50;;;;;;5060228;28;27503;-63
2021/03/07 07:48:34;;;;;;;13.68;9.57;;;6.30;50.50;;;;;;5047361;28;27472;-68
2021/03/07 07:51:38;;;;;;;16.63;10.27;;;6.70;49.50;;;;;;5062227;28;27456;-67
2021/03/07 07:54:48;;;;;;;16.25;9.75;;;7.20;48.60;;;;;;5059139;28;27489;-67
2021/03/07 07:57:40;;;;;;;15.52;9.38;;;7.70;47.60;;;;;;5062159;28;27424;-67
2021/03/07 08:00:45;;;;;;;14.32;10.13;;;8.20;46.70;;;;;;5062222;28;27483;-67
2021/03/07 08:03:32;;;;;;;13.85;9.32;;;8.70;45.70;;;;;;5083832;28;27401;-66
2021/03/07 08:06:23;;;;;;;15.10;9.02;;;9.20;45.10;;;;;;5083810;28;27383;-67
2021/03/07 08:09:44;;;;;;;15.00;9.95;;;9.60;44.40;;;;;;5083871;28;27412;-66
2021/03/07 08:12:43;;;;;;;13.32;9.00;;;10.00;44.00;;;;;;5083998;28;27428;-62
2021/03/07 08:15:27;;;;;;;14.38;9.65;;;10.30;43.80;;;;;;5083634;28;27675;-66
2021/03/07 08:18:13;;;;;;;12.98;8.85;;;10.70;43.70;;;;;;5083966;28;27494;-66
2021/03/07 08:20:58;;;;;;;12.35;9.77;;;11.10;43.40;;;;;;5083142;28;27365;-66
2021/03/07 08:23:58;;;;;;;15.27;9.98;;;11.60;42.80;;;;;;5083648;28;28022;-66
2021/03/07 08:26:43;;;;;;;12.98;9.52;;;12.10;42.10;;;;;;5083815;28;27563;-66
2021/03/07 08:29:48;;;;;;;13.95;9.98;;;12.50;41.60;;;;;;5083486;28;27473;-66
2021/03/07 08:32:37;;;;;;;12.90;9.50;;;13.00;41.10;;;;;;5079752;28;27381;-62
2021/03/07 08:35:24;;;;;;;12.30;8.80;;;13.30;40.60;;;;;;5083328;28;27798;-66
2021/03/07 08:38:12;;;;;;;13.00;9.13;;;13.60;40.20;;;;;;5083650;28;27526;-66
2021/03/07 08:40:57;;;;;;;15.27;9.45;;;14.00;40.00;;;;;;5084881;28;27418;-66
2021/03/07 08:43:43;;;;;;;12.00;8.98;;;14.30;39.30;;;;;;5086540;28;27304;-66
2021/03/07 08:46:28;;;;;;;14.38;8.98;;;14.50;39.40;;;;;;5083767;28;27961;-66
2021/03/07 08:49:17;;;;;;;12.32;8.48;;;14.90;38.80;;;;;;5086677;28;27454;-66
2021/03/07 08:52:06;;;;;;;8.95;7.80;;;15.30;38.20;;;;;;5086824;28;27449;-65
2021/03/07 08:54:50;;;;;;;13.82;8.80;;;15.70;37.60;;;;;;5086734;28;27343;-62
2021/03/07 08:57:35;;;;;;;13.07;8.77;;;16.20;37.00;;;;;;5068593;28;27437;-66
2021/03/07 09:00:19;;;;;;;11.07;8.20;;;16.50;36.60;;;;;;5086053;28;27387;-66
2021/03/07 09:03:04;;;;;;;15.80;7.75;;;17.00;36.00;;;;;;5086555;28;27332;-66
2021/03/07 09:05:48;;;;;;;9.85;7.93;;;17.30;35.90;;;;;;5071536;28;27343;-66
2021/03/07 09:08:33;;;;;;;9.50;7.10;;;17.70;35.40;;;;;;5086460;28;27943;-67
2021/03/07 09:11:17;;;;;;;9.02;7.55;;;17.90;35.20;;;;;;5086214;28;27412;-66
2021/03/07 09:14:02;;;;;;;10.23;7.43;;;18.40;34.40;;;;;;5085729;28;27550;-66
2021/03/07 09:16:47;;;;;;;13.07;8.43;;;18.80;34.10;;;;;;5086642;28;27446;-66
2021/03/07 09:19:35;;;;;;;9.63;7.18;;;19.30;33.50;;;;;;5086274;28;27425;-66
2021/03/07 09:22:26;;;;;;;8.88;6.93;;;19.60;33.10;;;;;;5086544;28;27411;-66
2021/03/07 09:25:11;;;;;;;9.55;7.22;;;19.90;32.80;;;;;;5086618;28;27419;-66
2021/03/07 09:27:56;;;;;;;10.27;7.18;;;20.20;32.60;;;;;;5086078;28;27443;-66
2021/03/07 09:30:40;;;;;;;10.35;8.20;;;20.40;32.00;;;;;;5085636;28;27408;-66
2021/03/07 09:33:25;;;;;;;9.48;7.90;;;20.70;31.90;;;;;;5085570;28;27486;-66
2021/03/07 09:36:11;;;;;;;9.48;7.22;;;21.00;31.60;;;;;;5086441;28;27462;-65
2021/03/07 09:38:56;;;;;;;7.57;6.70;;;21.20;31.20;;;;;;5091708;28;27563;-65
2021/03/07 09:41:43;;;;;;;9.25;7.55;;;21.40;31.10;;;;;;5106320;28;27443;-65
2021/03/07 09:44:30;;;;;;;8.10;7.25;;;21.70;31.10;;;;;;5106553;28;27443;-65
2021/03/07 09:47:15;;;;;;;9.38;6.70;;;21.90;30.80;;;;;;5091439;28;27342;-62
2021/03/07 09:49:59;;;;;;;8.40;6.68;;;22.10;30.60;;;;;;5106518;28;27317;-65
2021/03/07 09:52:44;;;;;;;8.80;7.60;;;22.20;30.50;;;;;;5076466;28;27355;-65
2021/03/07 09:55:33;;;;;;;8.98;7.38;;;22.40;30.00;;;;;;5091220;28;27375;-65
2021/03/07 09:58:18;;;;;;;9.18;7.30;;;22.50;30.00;;;;;;5106411;28;27465;-65
2021/03/07 10:01:04;;;;;;;8.77;7.25;;;22.60;30.00;;;;;;5106252;28;27333;-65
2021/03/07 10:03:49;;;;;;;8.48;7.00;;;22.80;30.00;;;;;;5106225;28;27431;-65
2021/03/07 10:06:34;;;;;;;8.88;7.55;;;23.00;29.90;;;;;;5102916;28;27455;-64
2021/03/07 10:09:18;;;;;;;8.82;6.85;;;23.30;29.60;;;;;;5105631;28;27433;-65
2021/03/07 10:12:03;;;;;;;7.03;6.32;;;23.40;29.60;;;;;;5105946;28;27293;-65
2021/03/07 10:14:54;;;;;;;7.95;7.07;;;23.60;29.40;;;;;;5105851;28;27372;-64
2021/03/07 10:17:41;;;;;;;9.95;7.80;;;23.60;29.10;;;;;;5106157;28;27611;-65
2021/03/07 10:20:36;;;;;;;7.45;6.55;;;23.80;29.10;;;;;;5102814;28;27368;-64
2021/03/07 10:23:22;;;;;;;9.35;6.80;;;24.00;29.00;;;;;;5102379;28;27430;-65
2021/03/07 10:26:07;;;;;;;8.45;7.30;;;24.20;29.10;;;;;;5076656;28;28115;-64
2021/03/07 10:28:51;;;;;;;9.85;6.72;;;24.40;28.70;;;;;;5105311;28;27522;-64
2021/03/07 10:31:35;;;;;;;7.88;7.05;;;24.60;28.40;;;;;;5105886;28;27337;-65
2021/03/07 10:34:41;;;;;;;8.95;7.38;;;24.70;28.60;;;;;;5090198;28;27601;-64
2021/03/07 10:37:45;;;;;;;7.75;7.03;;;24.90;28.30;;;;;;5105387;28;27900;-62
2021/03/07 10:40:36;;;;;;;10.48;6.90;;;25.10;28.10;;;;;;5104920;28;27388;-64
2021/03/07 10:43:20;;;;;;;7.85;6.03;;;25.30;28.30;;;;;;5105430;28;27449;-64
2021/03/07 10:46:05;;;;;;;7.50;5.97;;;25.40;28.50;;;;;;5105269;28;27438;-63
2021/03/07 10:48:52;;;;;;;8.13;6.78;;;25.50;28.00;;;;;;5089808;28;27461;-63
2021/03/07 10:51:37;;;;;;;8.55;6.72;;;25.80;27.80;;;;;;5105182;28;27427;-61
2021/03/07 10:54:21;;;;;;;8.98;7.32;;;26.00;27.70;;;;;;5105232;28;27437;-63
2021/03/07 10:57:10;;;;;;;7.45;6.65;;;26.20;27.40;;;;;;5105381;28;27443;-63
2021/03/07 10:59:55;;;;;;;7.05;6.03;;;26.30;27.60;;;;;;5105084;28;27340;-63
2021/03/07 11:02:40;;;;;;;6.53;5.90;;;26.50;27.40;;;;;;5101722;28;27325;-61
2021/03/07 11:05:25;;;;;;;7.45;6.30;;;26.70;27.60;;;;;;5075863;28;27392;-63
2021/03/07 11:08:10;;;;;;;8.48;6.35;;;26.90;27.40;;;;;;5086355;28;27414;-63
2021/03/07 11:10:55;;;;;;;7.00;6.00;;;27.10;27.20;;;;;;5105237;28;27976;-62
2021/03/07 11:13:39;;;;;;;8.23;6.47;;;27.30;27.10;;;;;;5104953;28;27368;-63
2021/03/07 11:16:24;;;;;;;8.45;6.25;;;27.50;26.90;;;;;;5104916;28;27328;-62
2021/03/07 11:19:08;;;;;;;7.43;6.15;;;27.60;26.90;;;;;;5104844;28;27340;-62
2021/03/07 11:21:53;;;;;;;6.30;5.60;;;27.80;26.70;;;;;;5105110;28;27500;-63
2021/03/07 11:24:37;;;;;;;7.30;5.88;;;28.00;26.60;;;;;;5104731;28;27442;-62
2021/03/07 11:27:22;;;;;;;8.05;5.88;;;28.10;26.50;;;;;;5105005;28;26910;-63
2021/03/07 11:30:08;;;;;;;6.68;6.03;;;28.20;26.50;;;;;;5104244;28;26975;-62
2021/03/07 11:32:53;;;;;;;7.50;6.75;;;28.30;26.50;;;;;;5104674;28;27360;-62
2021/03/07 11:35:38;;;;;;;6.20;5.60;;;28.40;26.10;;;;;;5104842;28;27416;-62
2021/03/07 11:38:22;;;;;;;6.50;5.90;;;28.60;26.40;;;;;;5101406;28;27337;-62
2021/03/07 11:41:06;;;;;;;7.90;6.63;;;28.60;26.50;;;;;;5104627;28;27415;-62
2021/03/07 11:43:51;;;;;;;8.85;6.40;;;28.70;26.20;;;;;;5086318;28;27861;-62
2021/03/07 11:46:35;;;;;;;7.50;5.18;;;28.80;26.30;;;;;;5104740;28;27510;-62
2021/03/07 11:49:20;;;;;;;6.28;5.55;;;28.90;26.30;;;;;;5104458;28;27486;-64
2021/03/07 11:52:05;;;;;;;6.10;5.05;;;28.90;26.20;;;;;;5104718;28;27464;-63
2021/03/07 11:54:49;;;;;;;6.30;5.63;;;29.00;26.10;;;;;;5104303;28;27438;-63
2021/03/07 11:57:34;;;;;;;6.07;5.05;;;29.10;26.20;;;;;;5101214;28;27443;-63
2021/03/07 12:00:19;;;;;;;6.50;5.45;;;29.10;26.00;;;;;;5104222;28;27490;-61
2021/03/07 12:03:04;;;;;;;6.50;5.07;;;29.20;26.00;;;;;;5089462;28;27482;-61
2021/03/07 12:05:48;;;;;;;5.53;4.93;;;29.20;26.20;;;;;;5088879;28;27937;-61
2021/03/07 12:08:33;;;;;;;5.93;5.32;;;29.20;26.10;;;;;;5104302;28;27383;-62
2021/03/07 12:11:18;;;;;;;6.30;4.88;;;29.30;26.00;;;;;;5104113;28;27392;-61
2021/03/07 12:14:03;;;;;;;5.93;5.07;;;29.20;25.90;;;;;;5104593;27;27380;-62
2021/03/07 12:16:47;;;;;;;6.85;5.82;;;28.70;26.30;;;;;;5107904;28;27329;-62
2021/03/07 12:19:31;;;;;;;7.68;5.80;;;28.00;26.40;;;;;;5107887;28;27328;-63
2021/03/07 12:22:16;;;;;;;5.53;5.03;;;27.30;26.50;;;;;;5107467;28;27382;-62
2021/03/07 12:25:01;;;;;;;7.75;4.70;;;26.90;27.30;;;;;;5089076;28;27329;-64
2021/03/07 12:27:45;;;;;;;8.50;4.78;;;26.50;27.40;;;;;;5107445;28;27877;-64
2021/03/07 12:30:30;;;;;;;5.03;4.53;;;26.20;27.70;;;;;;5107507;28;27340;-61
2021/03/07 12:33:14;;;;;;;5.80;5.20;;;25.90;27.80;;;;;;5107591;28;27347;-62
2021/03/07 12:35:59;;;;;;;5.75;5.15;;;25.80;27.80;;;;;;5107633;28;27413;-62
2021/03/07 12:38:43;;;;;;;6.88;4.45;;;26.00;28.00;;;;;;5104489;28;27405;-62
2021/03/07 12:41:27;;;;;;;6.75;5.22;;;26.00;27.70;;;;;;5107203;28;27443;-62
2021/03/07 12:44:12;;;;;;;6.82;4.68;;;26.10;27.50;;;;;;5107349;28;27423;-61
2021/03/07 12:46:56;;;;;;;7.50;5.20;;;26.40;27.60;;;;;;5107533;28;27422;-62
2021/03/07 12:49:41;;;;;;;5.47;4.93;;;26.80;27.30;;;;;;5106495;28;27991;-61
2021/03/07 12:52:26;;;;;;;4.30;3.90;;;27.10;27.20;;;;;;5107145;28;27454;-60
2021/03/07 12:55:11;;;;;;;5.03;4.53;;;27.30;27.20;;;;;;5107374;28;27431;-62
2021/03/07 12:57:56;;;;;;;5.15;4.13;;;27.30;27.20;;;;;;5106985;28;27471;-62
2021/03/07 13:00:41;;;;;;;5.55;4.68;;;27.10;27.10;;;;;;5107059;28;28036;-62
2021/03/07 13:03:25;;;;;;;9.52;5.25;;;27.10;26.70;;;;;;5091921;28;27482;-63
2021/03/07 13:06:10;;;;;;;8.63;4.93;;;27.00;26.30;;;;;;5092086;28;27428;-63
2021/03/07 13:08:54;;;;;;;7.47;5.70;;;26.90;26.40;;;;;;5103438;28;27391;-62
2021/03/07 13:11:39;;;;;;;5.60;4.70;;;26.70;26.40;;;;;;5106845;28;28098;-63
2021/03/07 13:14:23;;;;;;;6.13;5.10;;;26.50;26.10;;;;;;5106749;28;27473;-61
2021/03/07 13:17:08;;;;;;;7.25;4.88;;;26.10;25.90;;;;;;5106767;28;27639;-61
2021/03/07 13:19:53;;;;;;;5.38;4.47;;;25.80;26.10;;;;;;5107044;28;27402;-63
2021/03/07 13:22:38;;;;;;;6.35;5.75;;;25.50;26.40;;;;;;5106877;28;27316;-62
2021/03/07 13:25:23;;;;;;;5.63;4.80;;;25.20;27.20;;;;;;5106876;28;27333;-62
2021/03/07 13:28:07;;;;;;;5.65;4.55;;;24.90;27.70;;;;;;5087631;28;27383;-62
2021/03/07 13:30:52;;;;;;;5.22;4.72;;;24.90;27.90;;;;;;5106827;28;27339;-62
2021/03/07 13:33:38;;;;;;;9.95;8.18;;;25.20;28.10;;;;;;5106785;28;27424;-61
2021/03/07 13:36:23;;;;;;;13.10;9.18;;;25.40;26.50;;;;;;5106673;28;27364;-60
2021/03/07 13:39:07;;;;;;;12.45;9.07;;;25.10;24.10;;;;;;5106069;28;27604;-63
2021/03/07 13:41:52;;;;;;;9.18;6.95;;;24.90;24.70;;;;;;5106345;28;27340;-61
2021/03/07 13:44:36;;;;;;;6.85;6.03;;;25.00;25.20;;;;;;5105752;28;27877;-63
2021/03/07 13:47:21;;;;;;;7.80;5.63;;;25.50;25.70;;;;;;5106256;28;27533;-63
2021/03/07 13:50:06;;;;;;;7.75;5.43;;;25.90;25.80;;;;;;5106534;28;27362;-63
2021/03/07 13:52:51;;;;;;;5.15;4.65;;;26.20;25.80;;;;;;5106025;28;27383;-63
2021/03/07 13:55:35;;;;;;;8.63;4.68;;;26.20;26.00;;;;;;5106258;28;27331;-63
2021/03/07 13:58:19;;;;;;;5.57;4.45;;;26.20;26.10;;;;;;5105665;27;27495;-63
2021/03/07 14:01:04;;;;;;;5.75;5.15;;;26.20;26.40;;;;;;5106353;28;27494;-63
2021/03/07 14:03:48;;;;;;;17.40;7.30;;;26.20;26.60;;;;;;5106179;28;27336;-63
2021/03/07 14:06:33;;;;;;;6.78;4.50;;;26.40;26.50;;;;;;5105902;28;27984;-63
2021/03/07 14:09:18;;;;;;;6.15;4.32;;;26.20;26.60;;;;;;5105576;28;27458;-63
2021/03/07 14:12:03;;;;;;;9.65;4.97;;;25.80;26.70;;;;;;5105918;28;27395;-63
2021/03/07 14:14:48;;;;;;;7.13;4.55;;;25.40;26.90;;;;;;5106221;28;27383;-62
2021/03/07 14:17:32;;;;;;;5.32;4.57;;;24.90;27.50;;;;;;5106170;28;27494;-64
2021/03/07 14:20:20;;;;;;;6.85;5.22;;;24.50;28.10;;;;;;5105737;28;27424;-63
2021/03/07 14:23:04;;;;;;;9.90;5.20;;;24.20;28.10;;;;;;5106074;28;27382;-63
2021/03/07 14:25:49;;;;;;;6.15;5.55;;;24.20;28.10;;;;;;5105773;28;27435;-63
2021/03/07 14:28:33;;;;;;;11.32;6.40;;;24.00;28.00;;;;;;5105463;28;27356;-64